Airfield :







YOU CAN JOIN US ON...

 
LOGIN :

Register | Disclaimer

   EN    FR    IT 

 









Legend :    VFR   Marginal VFR   IFR   Intensive IFR   Very Intensive IFR
Visi :
Ceiling :
>= 8 km
>= 3000ft
5 to 8 km
1000 to 3000 ft
1500m to 5 km
500 to 1000 ft
800 to 1500m
200 to 500 ft
< 800m
< 200 ft
Symbols :   Thunderstorms  Fog  Heavy snow  Heavy precipitations  Wind > 20 kt







- Airport Elevation : 285 ft
- IATA code : ALB


KALB - Albany International

CURRENT METAR :
  • 191351Z 18018G27KT 10SM FEW015 SCT042 BKN230 20/13 A2972 RMK AO2 PK WND 17031/1258 SLP064 T02000133

EXPIRED METARs :
  • 191251Z 18017G26KT 10SM FEW015 SCT170 BKN250 19/13 A2969 RMK AO2 PK WND 18026/1247 SLP054 T01890133
  • 191151Z 18015G22KT 10SM FEW010 SCT200 BKN250 17/13 A2971 RMK AO2 PK WND 18026/1103 SLP060 T01670128 10167 20133 56004

TAF KALB
Valid from the 19 at 13:00 until the 20 at 12:00 UTC


191306Z 1913/2012 18015G22KT P6SM FEW015 SCT150 BKN250
FM191500 19014G21KT P6SM SCT020 BKN040
FM191900 19012G21KT P6SM VCSH BKN025 BKN040
FM192200 20012G22KT 3SM -SHRA BR BKN012 OVC025
KZBW FIR / North America



MET'MAP, your aeronautical weather chart ! - Copyright ORBIFLY December 2007 - Disclaimer

ORBIFLY MET'MAP TEAM :

Programming & Development : Alexandra Zaïnal
Concept & Development : Baudouin d'Aumeries
Co-Development & Prog : Marc-Olivier Méhu
Technical & hardware support : Manuel Goepfert

Contact : metmap@orbifly.com




SOURCES & CREDITS :

   NOAA